PWSweather.com
Personal Weather Stations
Station Observations
EI4HQ
Cork Harbour, CobhIE

Cork HarbourCobhIE

Lat: 51.85, Lon: -8.29

Elevation: 252

Station Type: Davis Vantage Pro2

http://www.corkharbourweather.ie

High Low Average
Temperature 48.5°F9.2°C 41.2°F5.1°C 45.2°F7.3°C
Dew Point 42.4°F5.8°C 37.0°F2.8°C 40.2°F4.6°C
Winds 33.0 mph 53.1 kmh 1.0 mph 1.6 kmh 12.0 mph SW19.3 kmh SW
Wind Gusts 45.0 mph72.4 kmh 1.0 mph1.6 kmh 16.0 mph25.7 kmh
Humidity 94% 75% 83%
Pressure 29.42 in996.3 mb 29.11 in985.8 mb -
Precipitation 0.29 in7.4 mm - -
Hour Temp Dew Point Humidity Winds Wind Gusts Pressure Precip Precip Rate Daily Precip Total
06:17 PM 43.0°F6.1°C 38.8°F3.8°C 85% 7.0 mph N11.3 kmh N 8.0 mph12.9 kmh 29.32 in992.9 mb 0.00 in0.0 mm 0.00 in0.0 mm 0.13 in3.3 mm
06:18 PM 43.0°F6.1°C 38.8°F3.8°C 85% 7.0 mph N11.3 kmh N 8.0 mph12.9 kmh 29.32 in992.9 mb 0.00 in0.0 mm 0.00 in0.0 mm 0.13 in3.3 mm
06:19 PM 43.0°F6.1°C 38.8°F3.8°C 85% 7.0 mph N11.3 kmh N 8.0 mph12.9 kmh 29.32 in992.9 mb 0.00 in0.0 mm 0.00 in0.0 mm 0.13 in3.3 mm
06:21 PM 48.5°F9.2°C 42.0°F5.6°C 78% 19.0 mph WNW30.6 kmh WNW 32.0 mph51.5 kmh 29.20 in988.8 mb 0.00 in0.0 mm 0.00 in0.0 mm 0.13 in3.3 mm
06:22 PM 47.9°F8.8°C 41.4°F5.2°C 78% 28.0 mph WNW45.1 kmh WNW 36.0 mph57.9 kmh 29.22 in989.5 mb 0.00 in0.0 mm 0.00 in0.0 mm 0.13 in3.3 mm
06:23 PM 45.3°F7.4°C 40.4°F4.7°C 83% 28.0 mph WNW45.1 kmh WNW 37.0 mph59.5 kmh 29.32 in992.9 mb 0.00 in0.0 mm 0.00 in0.0 mm 0.13 in3.3 mm
06:24 PM 46.4°F8.0°C 41.2°F5.1°C 82% 18.0 mph W29.0 kmh W 31.0 mph49.9 kmh 29.39 in995.3 mb 0.00 in0.0 mm 0.00 in0.0 mm 0.13 in3.3 mm
06:25 PM 46.8°F8.2°C 41.9°F5.5°C 83% 14.0 mph W22.5 kmh W 18.0 mph29.0 kmh 29.40 in995.6 mb 0.00 in0.0 mm 0.00 in0.0 mm 0.13 in3.3 mm
06:26 PM 47.4°F8.6°C 40.9°F4.9°C 78% 14.0 mph W22.5 kmh W 20.0 mph32.2 kmh 29.41 in995.9 mb 0.00 in0.0 mm 0.00 in0.0 mm 0.13 in3.3 mm
06:27 PM 47.1°F8.4°C 39.9°F4.4°C 76% 12.0 mph W19.3 kmh W 17.0 mph27.4 kmh 29.40 in995.6 mb 0.00 in0.0 mm 0.00 in0.0 mm 0.13 in3.3 mm
06:28 PM 45.4°F7.4°C 39.3°F4.1°C 79% 7.0 mph W11.3 kmh W 9.0 mph14.5 kmh 29.39 in995.3 mb 0.00 in0.0 mm 0.00 in0.0 mm 0.13 in3.3 mm
06:29 PM 44.6°F7.0°C 39.4°F4.1°C 82% 4.0 mph WSW6.4 kmh WSW 5.0 mph8.0 kmh 29.36 in994.2 mb 0.00 in0.0 mm 0.00 in0.0 mm 0.13 in3.3 mm
06:30 PM 43.8°F6.6°C 39.6°F4.2°C 85% 3.0 mph WSW4.8 kmh WSW 4.0 mph6.4 kmh 29.35 in993.9 mb 0.00 in0.0 mm 0.00 in0.0 mm 0.13 in3.3 mm
06:31 PM 43.3°F6.3°C 39.7°F4.3°C 87% 3.0 mph NW4.8 kmh NW 4.0 mph6.4 kmh 29.32 in992.9 mb 0.00 in0.0 mm 0.00 in0.0 mm 0.13 in3.3 mm
06:33 PM 42.6°F5.9°C 38.5°F3.6°C 85% 3.0 mph N4.8 kmh N 5.0 mph8.0 kmh 29.31 in992.6 mb 0.00 in0.0 mm 0.00 in0.0 mm 0.13 in3.3 mm
06:36 PM 42.4°F5.8°C 38.3°F3.5°C 85% 3.0 mph NNE4.8 kmh NNE 5.0 mph8.0 kmh 29.31 in992.6 mb 0.00 in0.0 mm 0.00 in0.0 mm 0.13 in3.3 mm
06:39 PM 42.4°F5.8°C 38.3°F3.5°C 85% 3.0 mph NNE4.8 kmh NNE 5.0 mph8.0 kmh 29.32 in992.9 mb 0.00 in0.0 mm 0.00 in0.0 mm 0.13 in3.3 mm
06:42 PM 42.4°F5.8°C 38.3°F3.5°C 85% 3.0 mph NE4.8 kmh NE 5.0 mph8.0 kmh 29.32 in992.9 mb 0.00 in0.0 mm 0.00 in0.0 mm 0.13 in3.3 mm
06:45 PM 42.4°F5.8°C 38.3°F3.5°C 85% 2.0 mph NE3.2 kmh NE 4.0 mph6.4 kmh 29.31 in992.6 mb 0.00 in0.0 mm 0.00 in0.0 mm 0.13 in3.3 mm
06:48 PM 42.3°F5.7°C 38.1°F3.4°C 85% 2.0 mph NE3.2 kmh NE 4.0 mph6.4 kmh 29.31 in992.6 mb 0.00 in0.0 mm 0.00 in0.0 mm 0.13 in3.3 mm
06:51 PM 42.3°F5.7°C 38.1°F3.4°C 85% 3.0 mph NE4.8 kmh NE 4.0 mph6.4 kmh 29.31 in992.6 mb 0.00 in0.0 mm 0.00 in0.0 mm 0.13 in3.3 mm
06:54 PM 42.3°F5.7°C 38.1°F3.4°C 85% 3.0 mph NE4.8 kmh NE 4.0 mph6.4 kmh 29.30 in992.2 mb 0.00 in0.0 mm 0.00 in0.0 mm 0.13 in3.3 mm
06:57 PM 42.3°F5.7°C 37.8°F3.2°C 84% 3.0 mph NE4.8 kmh NE 4.0 mph6.4 kmh 29.30 in992.2 mb 0.00 in0.0 mm 0.00 in0.0 mm 0.13 in3.3 mm
07:00 PM 42.3°F5.7°C 37.8°F3.2°C 84% 2.0 mph NE3.2 kmh NE 4.0 mph6.4 kmh 29.30 in992.2 mb 0.00 in0.0 mm 0.00 in0.0 mm 0.13 in3.3 mm
07:03 PM 42.3°F5.7°C 37.8°F3.2°C 84% 2.0 mph NE3.2 kmh NE 4.0 mph6.4 kmh 29.30 in992.2 mb 0.00 in0.0 mm 0.00 in0.0 mm 0.13 in3.3 mm
07:06 PM 42.1°F5.6°C 37.6°F3.1°C 84% 1.0 mph NE1.6 kmh NE 3.0 mph4.8 kmh 29.30 in992.2 mb 0.00 in0.0 mm 0.00 in0.0 mm 0.13 in3.3 mm
07:09 PM 42.1°F5.6°C 37.6°F3.1°C 84% 1.0 mph NE1.6 kmh NE 3.0 mph4.8 kmh 29.30 in992.2 mb 0.00 in0.0 mm 0.00 in0.0 mm 0.13 in3.3 mm
07:12 PM 42.1°F5.6°C 37.6°F3.1°C 84% 1.0 mph NE1.6 kmh NE 3.0 mph4.8 kmh 29.30 in992.2 mb 0.00 in0.0 mm 0.00 in0.0 mm 0.13 in3.3 mm
07:15 PM 41.9°F5.5°C 37.4°F3.0°C 84% 1.0 mph NE1.6 kmh NE 3.0 mph4.8 kmh 29.30 in992.2 mb 0.00 in0.0 mm 0.00 in0.0 mm 0.13 in3.3 mm
07:18 PM 41.9°F5.5°C 37.4°F3.0°C 84% 1.0 mph NE1.6 kmh NE 3.0 mph4.8 kmh 29.30 in992.2 mb 0.00 in0.0 mm 0.00 in0.0 mm 0.13 in3.3 mm
07:21 PM 41.9°F5.5°C 37.4°F3.0°C 84% 1.0 mph NE1.6 kmh NE 3.0 mph4.8 kmh 29.29 in991.9 mb 0.00 in0.0 mm 0.00 in0.0 mm 0.13 in3.3 mm
07:24 PM 41.7°F5.4°C 37.4°F3.0°C 84% 1.0 mph NE1.6 kmh NE 3.0 mph4.8 kmh 29.29 in991.9 mb 0.00 in0.0 mm 0.00 in0.0 mm 0.13 in3.3 mm
07:27 PM 41.7°F5.4°C 37.2°F2.9°C 84% 1.0 mph NE1.6 kmh NE 2.0 mph3.2 kmh 29.29 in991.9 mb 0.00 in0.0 mm 0.00 in0.0 mm 0.13 in3.3 mm
07:30 PM 41.5°F5.3°C 37.0°F2.8°C 84% 1.0 mph NE1.6 kmh NE 2.0 mph3.2 kmh 29.29 in991.9 mb 0.00 in0.0 mm 0.00 in0.0 mm 0.13 in3.3 mm
07:33 PM 41.5°F5.3°C 37.0°F2.8°C 84% 1.0 mph NE1.6 kmh NE 2.0 mph3.2 kmh 29.29 in991.9 mb 0.00 in0.0 mm 0.00 in0.0 mm 0.13 in3.3 mm
07:36 PM 41.5°F5.3°C 37.0°F2.8°C 84% 1.0 mph NE1.6 kmh NE 4.0 mph6.4 kmh 29.29 in991.9 mb 0.00 in0.0 mm 0.00 in0.0 mm 0.13 in3.3 mm
07:39 PM 41.4°F5.2°C 37.2°F2.9°C 85% 1.0 mph NE1.6 kmh NE 4.0 mph6.4 kmh 29.28 in991.5 mb 0.00 in0.0 mm 0.00 in0.0 mm 0.13 in3.3 mm
07:42 PM 41.4°F5.2°C 37.2°F2.9°C 85% 2.0 mph ENE3.2 kmh ENE 4.0 mph6.4 kmh 29.28 in991.5 mb 0.00 in0.0 mm 0.00 in0.0 mm 0.13 in3.3 mm
07:45 PM 41.4°F5.2°C 37.2°F2.9°C 85% 2.0 mph E3.2 kmh E 4.0 mph6.4 kmh 29.28 in991.5 mb 0.00 in0.0 mm 0.00 in0.0 mm 0.13 in3.3 mm
07:48 PM 41.5°F5.3°C 37.6°F3.1°C 86% 3.0 mph E4.8 kmh E 6.0 mph9.7 kmh 29.28 in991.5 mb 0.00 in0.0 mm 0.00 in0.0 mm 0.13 in3.3 mm
07:51 PM 41.5°F5.3°C 37.6°F3.1°C 86% 3.0 mph ESE4.8 kmh ESE 6.0 mph9.7 kmh 29.28 in991.5 mb 0.00 in0.0 mm 0.00 in0.0 mm 0.13 in3.3 mm
07:54 PM 41.5°F5.3°C 37.9°F3.3°C 87% 3.0 mph ESE4.8 kmh ESE 6.0 mph9.7 kmh 29.28 in991.5 mb 0.00 in0.0 mm 0.00 in0.0 mm 0.13 in3.3 mm
07:57 PM 41.5°F5.3°C 37.9°F3.3°C 87% 3.0 mph ESE4.8 kmh ESE 6.0 mph9.7 kmh 29.27 in991.2 mb 0.00 in0.0 mm 0.00 in0.0 mm 0.13 in3.3 mm
08:00 PM 41.5°F5.3°C 37.9°F3.3°C 87% 3.0 mph SE4.8 kmh SE 6.0 mph9.7 kmh 29.27 in991.2 mb 0.00 in0.0 mm 0.00 in0.0 mm 0.13 in3.3 mm
08:03 PM 41.5°F5.3°C 37.9°F3.3°C 87% 3.0 mph SE4.8 kmh SE 6.0 mph9.7 kmh 29.27 in991.2 mb 0.00 in0.0 mm 0.00 in0.0 mm 0.13 in3.3 mm
08:06 PM 41.5°F5.3°C 37.9°F3.3°C 87% 3.0 mph ESE4.8 kmh ESE 6.0 mph9.7 kmh 29.27 in991.2 mb 0.00 in0.0 mm 0.00 in0.0 mm 0.13 in3.3 mm
08:09 PM 41.5°F5.3°C 37.9°F3.3°C 87% 3.0 mph E4.8 kmh E 7.0 mph11.3 kmh 29.27 in991.2 mb 0.00 in0.0 mm 0.00 in0.0 mm 0.13 in3.3 mm
08:12 PM 41.7°F5.4°C 38.1°F3.4°C 87% 4.0 mph E6.4 kmh E 7.0 mph11.3 kmh 29.26 in990.9 mb 0.00 in0.0 mm 0.00 in0.0 mm 0.13 in3.3 mm
08:15 PM 41.7°F5.4°C 38.1°F3.4°C 87% 4.0 mph E6.4 kmh E 8.0 mph12.9 kmh 29.26 in990.9 mb 0.00 in0.0 mm 0.00 in0.0 mm 0.13 in3.3 mm
08:18 PM 41.7°F5.4°C 38.1°F3.4°C 87% 4.0 mph E6.4 kmh E 8.0 mph12.9 kmh 29.25 in990.5 mb 0.00 in0.0 mm 0.00 in0.0 mm 0.13 in3.3 mm
08:21 PM 41.7°F5.4°C 38.3°F3.5°C 87% 4.0 mph E6.4 kmh E 8.0 mph12.9 kmh 29.25 in990.5 mb 0.00 in0.0 mm 0.00 in0.0 mm 0.13 in3.3 mm
08:24 PM 41.7°F5.4°C 38.5°F3.6°C 88% 5.0 mph ESE8.0 kmh ESE 8.0 mph12.9 kmh 29.25 in990.5 mb 0.00 in0.0 mm 0.00 in0.0 mm 0.13 in3.3 mm
08:27 PM 41.9°F5.5°C 38.7°F3.7°C 88% 5.0 mph ESE8.0 kmh ESE 8.0 mph12.9 kmh 29.25 in990.5 mb 0.00 in0.0 mm 0.00 in0.0 mm 0.13 in3.3 mm
08:30 PM 41.9°F5.5°C 38.7°F3.7°C 88% 5.0 mph ESE8.0 kmh ESE 8.0 mph12.9 kmh 29.25 in990.5 mb 0.00 in0.0 mm 0.00 in0.0 mm 0.13 in3.3 mm
08:33 PM 42.1°F5.6°C 38.7°F3.7°C 88% 5.0 mph ESE8.0 kmh ESE 9.0 mph14.5 kmh 29.25 in990.5 mb 0.00 in0.0 mm 0.00 in0.0 mm 0.13 in3.3 mm
08:36 PM 42.1°F5.6°C 38.8°F3.8°C 88% 5.0 mph ESE8.0 kmh ESE 9.0 mph14.5 kmh 29.25 in990.5 mb 0.00 in0.0 mm 0.00 in0.0 mm 0.13 in3.3 mm
08:39 PM 42.3°F5.7°C 39.2°F4.0°C 89% 5.0 mph ESE8.0 kmh ESE 9.0 mph14.5 kmh 29.25 in990.5 mb 0.00 in0.0 mm 0.00 in0.0 mm 0.13 in3.3 mm
08:42 PM 42.3°F5.7°C 39.2°F4.0°C 89% 5.0 mph SE8.0 kmh SE 11.0 mph17.7 kmh 29.25 in990.5 mb 0.00 in0.0 mm 0.00 in0.0 mm 0.13 in3.3 mm
08:45 PM 42.4°F5.8°C 39.6°F4.2°C 89% 6.0 mph SE9.7 kmh SE 12.0 mph19.3 kmh 29.25 in990.5 mb 0.00 in0.0 mm 0.00 in0.0 mm 0.13 in3.3 mm
08:48 PM 42.8°F6.0°C 40.1°F4.5°C 90% 8.0 mph SSE12.9 kmh SSE 15.0 mph24.1 kmh 29.25 in990.5 mb 0.00 in0.0 mm 0.00 in0.0 mm 0.13 in3.3 mm
08:51 PM 43.0°F6.1°C 40.3°F4.6°C 90% 9.0 mph SSE14.5 kmh SSE 15.0 mph24.1 kmh 29.25 in990.5 mb 0.00 in0.0 mm 0.00 in0.0 mm 0.13 in3.3 mm
08:54 PM 43.2°F6.2°C 40.5°F4.7°C 90% 10.0 mph SSE16.1 kmh SSE 15.0 mph24.1 kmh 29.24 in990.2 mb 0.00 in0.0 mm 0.00 in0.0 mm 0.13 in3.3 mm
08:57 PM 43.3°F6.3°C 40.6°F4.8°C 90% 10.0 mph SSE16.1 kmh SSE 17.0 mph27.4 kmh 29.24 in990.2 mb 0.00 in0.0 mm 0.00 in0.0 mm 0.13 in3.3 mm
09:00 PM 43.5°F6.4°C 40.8°F4.9°C 90% 11.0 mph SSE17.7 kmh SSE 20.0 mph32.2 kmh 29.24 in990.2 mb 0.00 in0.0 mm 0.00 in0.0 mm 0.13 in3.3 mm
09:03 PM 43.5°F6.4°C 40.6°F4.8°C 89% 12.0 mph SSE19.3 kmh SSE 21.0 mph33.8 kmh 29.24 in990.2 mb 0.00 in0.0 mm 0.00 in0.0 mm 0.13 in3.3 mm
09:06 PM 43.7°F6.5°C 40.6°F4.8°C 89% 13.0 mph SSE20.9 kmh SSE 21.0 mph33.8 kmh 29.24 in990.2 mb 0.00 in0.0 mm 0.00 in0.0 mm 0.13 in3.3 mm
09:09 PM 43.7°F6.5°C 40.6°F4.8°C 89% 14.0 mph SSE22.5 kmh SSE 21.0 mph33.8 kmh 29.23 in989.8 mb 0.00 in0.0 mm 0.00 in0.0 mm 0.13 in3.3 mm
09:12 PM 43.5°F6.4°C 40.6°F4.8°C 89% 14.0 mph SSE22.5 kmh SSE 20.0 mph32.2 kmh 29.23 in989.8 mb 0.00 in0.0 mm 0.00 in0.0 mm 0.13 in3.3 mm
09:15 PM 43.7°F6.5°C 40.6°F4.8°C 89% 14.0 mph SSE22.5 kmh SSE 20.0 mph32.2 kmh 29.23 in989.8 mb 0.00 in0.0 mm 0.00 in0.0 mm 0.13 in3.3 mm
09:18 PM 43.9°F6.6°C 41.2°F5.1°C 90% 14.0 mph SSE22.5 kmh SSE 21.0 mph33.8 kmh 29.23 in989.8 mb 0.00 in0.0 mm 0.00 in0.0 mm 0.13 in3.3 mm
09:21 PM 43.9°F6.6°C 40.8°F4.9°C 89% 13.0 mph SSE20.9 kmh SSE 21.0 mph33.8 kmh 29.23 in989.8 mb 0.00 in0.0 mm 0.00 in0.0 mm 0.13 in3.3 mm
09:24 PM 43.9°F6.6°C 41.2°F5.1°C 90% 14.0 mph SSE22.5 kmh SSE 23.0 mph37.0 kmh 29.23 in989.8 mb 0.00 in0.0 mm 0.00 in0.0 mm 0.13 in3.3 mm
09:27 PM 43.9°F6.6°C 41.2°F5.1°C 90% 14.0 mph SSE22.5 kmh SSE 23.0 mph37.0 kmh 29.22 in989.5 mb 0.00 in0.0 mm 0.00 in0.0 mm 0.13 in3.3 mm
09:30 PM 43.9°F6.6°C 41.2°F5.1°C 90% 14.0 mph SSE22.5 kmh SSE 23.0 mph37.0 kmh 29.22 in989.5 mb 0.00 in0.0 mm 0.00 in0.0 mm 0.13 in3.3 mm
09:33 PM 43.9°F6.6°C 40.8°F4.9°C 89% 14.0 mph SSE22.5 kmh SSE 21.0 mph33.8 kmh 29.22 in989.5 mb 0.00 in0.0 mm 0.00 in0.0 mm 0.13 in3.3 mm
09:36 PM 43.9°F6.6°C 41.2°F5.1°C 90% 13.0 mph SSE20.9 kmh SSE 22.0 mph35.4 kmh 29.22 in989.5 mb 0.00 in0.0 mm 0.00 in0.0 mm 0.13 in3.3 mm
09:39 PM 44.1°F6.7°C 41.2°F5.1°C 90% 13.0 mph SSE20.9 kmh SSE 22.0 mph35.4 kmh 29.21 in989.2 mb 0.00 in0.0 mm 0.00 in0.0 mm 0.13 in3.3 mm
09:42 PM 44.1°F6.7°C 41.2°F5.1°C 90% 14.0 mph SSE22.5 kmh SSE 23.0 mph37.0 kmh 29.21 in989.2 mb 0.00 in0.0 mm 0.00 in0.0 mm 0.13 in3.3 mm
09:45 PM 44.1°F6.7°C 41.4°F5.2°C 90% 15.0 mph SE24.1 kmh SE 23.0 mph37.0 kmh 29.21 in989.2 mb 0.00 in0.0 mm 0.00 in0.0 mm 0.13 in3.3 mm
09:48 PM 44.2°F6.8°C 41.5°F5.3°C 90% 15.0 mph SE24.1 kmh SE 23.0 mph37.0 kmh 29.21 in989.2 mb 0.00 in0.0 mm 0.00 in0.0 mm 0.13 in3.3 mm
09:51 PM 44.1°F6.7°C 41.4°F5.2°C 90% 16.0 mph SE25.7 kmh SE 24.0 mph38.6 kmh 29.20 in988.8 mb 0.00 in0.0 mm 0.00 in0.0 mm 0.13 in3.3 mm
09:54 PM 44.1°F6.7°C 41.4°F5.2°C 90% 16.0 mph SE25.7 kmh SE 24.0 mph38.6 kmh 29.20 in988.8 mb 0.00 in0.0 mm 0.00 in0.0 mm 0.13 in3.3 mm
09:57 PM 44.1°F6.7°C 41.4°F5.2°C 90% 15.0 mph SE24.1 kmh SE 24.0 mph38.6 kmh 29.19 in988.5 mb 0.00 in0.0 mm 0.00 in0.0 mm 0.13 in3.3 mm
10:00 PM 44.1°F6.7°C 41.7°F5.4°C 91% 14.0 mph SE22.5 kmh SE 24.0 mph38.6 kmh 29.19 in988.5 mb 0.00 in0.0 mm 0.00 in0.0 mm 0.13 in3.3 mm
10:03 PM 44.2°F6.8°C 41.7°F5.4°C 91% 12.0 mph SE19.3 kmh SE 20.0 mph32.2 kmh 29.19 in988.5 mb 0.00 in0.0 mm 0.00 in0.0 mm 0.13 in3.3 mm
10:06 PM 44.2°F6.8°C 41.7°F5.4°C 91% 12.0 mph SE19.3 kmh SE 20.0 mph32.2 kmh 29.18 in988.1 mb 0.00 in0.0 mm 0.00 in0.0 mm 0.13 in3.3 mm
10:09 PM 44.1°F6.7°C 41.7°F5.4°C 91% 13.0 mph SE20.9 kmh SE 19.0 mph30.6 kmh 29.18 in988.1 mb 0.00 in0.0 mm 0.00 in0.0 mm 0.13 in3.3 mm
10:12 PM 44.1°F6.7°C 41.7°F5.4°C 91% 11.0 mph SE17.7 kmh SE 19.0 mph30.6 kmh 29.18 in988.1 mb 0.00 in0.0 mm 0.00 in0.0 mm 0.13 in3.3 mm
10:15 PM 44.1°F6.7°C 41.9°F5.5°C 92% 10.0 mph SE16.1 kmh SE 19.0 mph30.6 kmh 29.17 in987.8 mb 0.01 in0.3 mm 0.20 in5.1 mm 0.13 in3.3 mm
10:18 PM 43.9°F6.6°C 41.7°F5.4°C 92% 9.0 mph ESE14.5 kmh ESE 17.0 mph27.4 kmh 29.17 in987.8 mb 0.01 in0.3 mm 0.00 in0.0 mm 0.13 in3.3 mm
10:21 PM 43.9°F6.6°C 41.7°F5.4°C 92% 9.0 mph ESE14.5 kmh ESE 17.0 mph27.4 kmh 29.17 in987.8 mb 0.01 in0.3 mm 0.00 in0.0 mm 0.13 in3.3 mm
10:24 PM 43.9°F6.6°C 41.7°F5.4°C 92% 8.0 mph ESE12.9 kmh ESE 17.0 mph27.4 kmh 29.16 in987.5 mb 0.01 in0.3 mm 0.00 in0.0 mm 0.13 in3.3 mm
10:27 PM 43.9°F6.6°C 41.7°F5.4°C 92% 8.0 mph ESE12.9 kmh ESE 17.0 mph27.4 kmh 29.16 in987.5 mb 0.01 in0.3 mm 0.00 in0.0 mm 0.13 in3.3 mm
10:30 PM 43.9°F6.6°C 41.7°F5.4°C 92% 8.0 mph ESE12.9 kmh ESE 14.0 mph22.5 kmh 29.16 in987.5 mb 0.01 in0.3 mm 0.00 in0.0 mm 0.13 in3.3 mm
10:33 PM 43.9°F6.6°C 41.9°F5.5°C 93% 8.0 mph ESE12.9 kmh ESE 14.0 mph22.5 kmh 29.16 in987.5 mb 0.01 in0.3 mm 0.00 in0.0 mm 0.13 in3.3 mm
10:36 PM 43.9°F6.6°C 41.9°F5.5°C 93% 8.0 mph ESE12.9 kmh ESE 14.0 mph22.5 kmh 29.16 in987.5 mb 0.01 in0.3 mm 0.00 in0.0 mm 0.13 in3.3 mm
10:39 PM 43.9°F6.6°C 41.9°F5.5°C 93% 7.0 mph ESE11.3 kmh ESE 13.0 mph20.9 kmh 29.15 in987.1 mb 0.01 in0.3 mm 0.00 in0.0 mm 0.13 in3.3 mm
10:42 PM 43.9°F6.6°C 41.9°F5.5°C 93% 7.0 mph ESE11.3 kmh ESE 14.0 mph22.5 kmh 29.15 in987.1 mb 0.01 in0.3 mm 0.00 in0.0 mm 0.13 in3.3 mm
10:45 PM 43.7°F6.5°C 41.7°F5.4°C 93% 7.0 mph E11.3 kmh E 14.0 mph22.5 kmh 29.15 in987.1 mb 0.01 in0.3 mm 0.00 in0.0 mm 0.13 in3.3 mm
10:48 PM 43.7°F6.5°C 41.7°F5.4°C 93% 8.0 mph E12.9 kmh E 14.0 mph22.5 kmh 29.14 in986.8 mb 0.02 in0.5 mm 0.20 in5.1 mm 0.14 in3.6 mm
10:51 PM 43.7°F6.5°C 41.7°F5.4°C 93% 7.0 mph E11.3 kmh E 14.0 mph22.5 kmh 29.14 in986.8 mb 0.02 in0.5 mm 0.00 in0.0 mm 0.14 in3.6 mm
10:54 PM 43.7°F6.5°C 41.7°F5.4°C 93% 7.0 mph E11.3 kmh E 14.0 mph22.5 kmh 29.14 in986.8 mb 0.02 in0.5 mm 0.00 in0.0 mm 0.15 in3.8 mm
10:57 PM 43.7°F6.5°C 42.1°F5.6°C 94% 6.0 mph E9.7 kmh E 11.0 mph17.7 kmh 29.14 in986.8 mb 0.03 in0.8 mm 0.20 in5.1 mm 0.16 in4.1 mm
11:00 PM 43.7°F6.5°C 42.1°F5.6°C 94% 6.0 mph E9.7 kmh E 11.0 mph17.7 kmh 29.13 in986.5 mb 0.04 in1.0 mm 0.01 in0.3 mm 0.17 in4.3 mm
11:03 PM 43.7°F6.5°C 42.1°F5.6°C 94% 6.0 mph E9.7 kmh E 11.0 mph17.7 kmh 29.13 in986.5 mb 0.05 in1.3 mm 0.20 in5.1 mm 0.17 in4.3 mm
11:06 PM 43.7°F6.5°C 42.1°F5.6°C 94% 5.0 mph E8.0 kmh E 11.0 mph17.7 kmh 29.13 in986.5 mb 0.05 in1.3 mm 0.00 in0.0 mm 0.17 in4.3 mm
11:09 PM 43.7°F6.5°C 42.1°F5.6°C 94% 4.0 mph ENE6.4 kmh ENE 9.0 mph14.5 kmh 29.13 in986.5 mb 0.05 in1.3 mm 0.00 in0.0 mm 0.17 in4.3 mm
11:12 PM 43.5°F6.4°C 41.9°F5.5°C 94% 4.0 mph NE6.4 kmh NE 13.0 mph20.9 kmh 29.12 in986.1 mb 0.05 in1.3 mm 0.00 in0.0 mm 0.17 in4.3 mm
11:15 PM 43.5°F6.4°C 41.9°F5.5°C 94% 6.0 mph NE9.7 kmh NE 13.0 mph20.9 kmh 29.12 in986.1 mb 0.06 in1.5 mm 0.20 in5.1 mm 0.19 in4.8 mm
11:18 PM 43.3°F6.3°C 41.7°F5.4°C 94% 7.0 mph NE11.3 kmh NE 13.0 mph20.9 kmh 29.12 in986.1 mb 0.06 in1.5 mm 0.00 in0.0 mm 0.19 in4.8 mm
11:21 PM 43.3°F6.3°C 41.7°F5.4°C 94% 8.0 mph NE12.9 kmh NE 13.0 mph20.9 kmh 29.12 in986.1 mb 0.06 in1.5 mm 0.00 in0.0 mm 0.19 in4.8 mm
11:24 PM 43.3°F6.3°C 41.7°F5.4°C 94% 7.0 mph NNE11.3 kmh NNE 12.0 mph19.3 kmh 29.12 in986.1 mb 0.06 in1.5 mm 0.00 in0.0 mm 0.20 in5.1 mm
11:27 PM 43.2°F6.2°C 41.5°F5.3°C 94% 8.0 mph NNE12.9 kmh NNE 14.0 mph22.5 kmh 29.11 in985.8 mb 0.07 in1.8 mm 0.20 in5.1 mm 0.20 in5.1 mm
11:30 PM 43.2°F6.2°C 41.5°F5.3°C 94% 9.0 mph NNE14.5 kmh NNE 17.0 mph27.4 kmh 29.11 in985.8 mb 0.08 in2.0 mm 0.20 in5.1 mm 0.21 in5.3 mm
11:33 PM 43.0°F6.1°C 41.4°F5.2°C 94% 11.0 mph N17.7 kmh N 17.0 mph27.4 kmh 29.11 in985.8 mb 0.09 in2.3 mm 0.20 in5.1 mm 0.22 in5.6 mm
11:36 PM 43.0°F6.1°C 41.4°F5.2°C 94% 12.0 mph N19.3 kmh N 20.0 mph32.2 kmh 29.12 in986.1 mb 0.09 in2.3 mm 0.00 in0.0 mm 0.23 in5.8 mm
11:39 PM 43.0°F6.1°C 41.4°F5.2°C 94% 13.0 mph N20.9 kmh N 20.0 mph32.2 kmh 29.12 in986.1 mb 0.11 in2.8 mm 0.40 in10.2 mm 0.24 in6.1 mm
11:42 PM 42.8°F6.0°C 41.2°F5.1°C 94% 14.0 mph N22.5 kmh N 20.0 mph32.2 kmh 29.12 in986.1 mb 0.12 in3.0 mm 0.20 in5.1 mm 0.25 in6.4 mm
11:45 PM 42.6°F5.9°C 41.2°F5.1°C 94% 14.0 mph N22.5 kmh N 20.0 mph32.2 kmh 29.12 in986.1 mb 0.12 in3.0 mm 0.00 in0.0 mm 0.26 in6.6 mm
11:48 PM 42.4°F5.8°C 40.8°F4.9°C 94% 14.0 mph N22.5 kmh N 24.0 mph38.6 kmh 29.13 in986.5 mb 0.13 in3.3 mm 0.20 in5.1 mm 0.27 in6.9 mm
11:51 PM 42.1°F5.6°C 40.5°F4.7°C 94% 15.0 mph NNW24.1 kmh NNW 25.0 mph40.2 kmh 29.13 in986.5 mb 0.13 in3.3 mm 0.00 in0.0 mm 0.28 in7.1 mm
11:54 PM 41.5°F5.3°C 39.9°F4.4°C 94% 16.0 mph NNW25.7 kmh NNW 27.0 mph43.5 kmh 29.13 in986.5 mb 0.13 in3.3 mm 0.00 in0.0 mm 0.28 in7.1 mm
11:57 PM 41.2°F5.1°C 39.6°F4.2°C 94% 17.0 mph NNW27.4 kmh NNW 27.0 mph43.5 kmh 29.14 in986.8 mb 0.13 in3.3 mm 0.00 in0.0 mm 0.29 in7.4 mm